sensor_id;sensor_type;location;lat;lon;timestamp;P1;durP1;ratioP1;P2;durP2;ratioP2
6372;SDS011;3219;51.362;7.074;2023-03-14T00:00:08;10.45;;;2.78;;
6372;SDS011;3219;51.362;7.074;2023-03-14T00:02:36;8.65;;;2.40;;
6372;SDS011;3219;51.362;7.074;2023-03-14T00:05:05;6.88;;;2.60;;
6372;SDS011;3219;51.362;7.074;2023-03-14T00:07:33;9.10;;;2.67;;
6372;SDS011;3219;51.362;7.074;2023-03-14T00:10:02;7.32;;;2.60;;
6372;SDS011;3219;51.362;7.074;2023-03-14T00:12:30;9.23;;;2.92;;
6372;SDS011;3219;51.362;7.074;2023-03-14T00:14:57;9.20;;;2.80;;
6372;SDS011;3219;51.362;7.074;2023-03-14T00:17:25;7.97;;;2.47;;
6372;SDS011;3219;51.362;7.074;2023-03-14T00:19:51;10.98;;;3.10;;
6372;SDS011;3219;51.362;7.074;2023-03-14T00:22:20;7.03;;;2.67;;
6372;SDS011;3219;51.362;7.074;2023-03-14T00:24:47;9.90;;;2.70;;
6372;SDS011;3219;51.362;7.074;2023-03-14T00:27:14;6.53;;;2.28;;
6372;SDS011;3219;51.362;7.074;2023-03-14T00:29:42;7.22;;;2.50;;
6372;SDS011;3219;51.362;7.074;2023-03-14T00:32:09;6.82;;;2.10;;
6372;SDS011;3219;51.362;7.074;2023-03-14T00:34:35;8.68;;;2.88;;
6372;SDS011;3219;51.362;7.074;2023-03-14T00:37:02;9.38;;;3.13;;
6372;SDS011;3219;51.362;7.074;2023-03-14T00:39:30;9.95;;;3.25;;
6372;SDS011;3219;51.362;7.074;2023-03-14T00:41:57;11.20;;;3.05;;
6372;SDS011;3219;51.362;7.074;2023-03-14T00:44:24;8.77;;;2.58;;
6372;SDS011;3219;51.362;7.074;2023-03-14T00:46:50;9.00;;;2.63;;
6372;SDS011;3219;51.362;7.074;2023-03-14T00:49:17;10.00;;;2.70;;
6372;SDS011;3219;51.362;7.074;2023-03-14T00:51:44;6.70;;;2.22;;
6372;SDS011;3219;51.362;7.074;2023-03-14T00:54:11;9.60;;;3.22;;
6372;SDS011;3219;51.362;7.074;2023-03-14T00:56:39;13.35;;;3.42;;
6372;SDS011;3219;51.362;7.074;2023-03-14T00:59:05;19.02;;;3.90;;
6372;SDS011;3219;51.362;7.074;2023-03-14T01:01:32;17.02;;;3.72;;
6372;SDS011;3219;51.362;7.074;2023-03-14T01:03:59;6.18;;;1.92;;
6372;SDS011;3219;51.362;7.074;2023-03-14T01:06:26;9.60;;;2.17;;
6372;SDS011;3219;51.362;7.074;2023-03-14T01:08:55;6.13;;;1.95;;
6372;SDS011;3219;51.362;7.074;2023-03-14T01:11:23;5.22;;;2.10;;
6372;SDS011;3219;51.362;7.074;2023-03-14T01:13:54;6.95;;;1.88;;
6372;SDS011;3219;51.362;7.074;2023-03-14T01:16:21;4.78;;;2.00;;
6372;SDS011;3219;51.362;7.074;2023-03-14T01:18:49;7.75;;;2.22;;
6372;SDS011;3219;51.362;7.074;2023-03-14T01:21:16;5.13;;;2.13;;
6372;SDS011;3219;51.362;7.074;2023-03-14T01:23:44;5.97;;;2.08;;
6372;SDS011;3219;51.362;7.074;2023-03-14T01:26:13;8.88;;;2.20;;
6372;SDS011;3219;51.362;7.074;2023-03-14T01:28:41;7.15;;;2.13;;
6372;SDS011;3219;51.362;7.074;2023-03-14T01:31:09;10.75;;;2.45;;
6372;SDS011;3219;51.362;7.074;2023-03-14T01:33:37;8.00;;;1.83;;
6372;SDS011;3219;51.362;7.074;2023-03-14T01:36:04;8.90;;;2.00;;
6372;SDS011;3219;51.362;7.074;2023-03-14T01:38:32;10.93;;;2.60;;
6372;SDS011;3219;51.362;7.074;2023-03-14T01:41:00;5.85;;;1.70;;
6372;SDS011;3219;51.362;7.074;2023-03-14T01:43:28;9.90;;;2.33;;
6372;SDS011;3219;51.362;7.074;2023-03-14T01:46:09;10.57;;;2.40;;
6372;SDS011;3219;51.362;7.074;2023-03-14T01:48:44;6.38;;;2.03;;
6372;SDS011;3219;51.362;7.074;2023-03-14T01:51:18;7.43;;;2.38;;
6372;SDS011;3219;51.362;7.074;2023-03-14T01:53:47;8.57;;;2.17;;
6372;SDS011;3219;51.362;7.074;2023-03-14T01:56:16;9.88;;;2.35;;
6372;SDS011;3219;51.362;7.074;2023-03-14T01:58:45;7.22;;;2.20;;
6372;SDS011;3219;51.362;7.074;2023-03-14T02:01:16;7.18;;;2.45;;
6372;SDS011;3219;51.362;7.074;2023-03-14T02:03:47;9.82;;;2.40;;
6372;SDS011;3219;51.362;7.074;2023-03-14T02:06:19;8.73;;;2.13;;
6372;SDS011;3219;51.362;7.074;2023-03-14T02:08:50;6.38;;;2.30;;
6372;SDS011;3219;51.362;7.074;2023-03-14T02:11:17;8.40;;;2.00;;
6372;SDS011;3219;51.362;7.074;2023-03-14T02:13:45;9.60;;;2.50;;
6372;SDS011;3219;51.362;7.074;2023-03-14T02:16:12;7.68;;;2.20;;
6372;SDS011;3219;51.362;7.074;2023-03-14T02:18:40;9.02;;;2.53;;
6372;SDS011;3219;51.362;7.074;2023-03-14T02:21:09;7.03;;;2.90;;
6372;SDS011;3219;51.362;7.074;2023-03-14T02:23:43;11.13;;;2.78;;
6372;SDS011;3219;51.362;7.074;2023-03-14T02:26:19;7.45;;;2.20;;
6372;SDS011;3219;51.362;7.074;2023-03-14T02:28:49;9.43;;;2.67;;
6372;SDS011;3219;51.362;7.074;2023-03-14T02:31:18;10.77;;;2.70;;
6372;SDS011;3219;51.362;7.074;2023-03-14T02:33:47;14.63;;;3.45;;
6372;SDS011;3219;51.362;7.074;2023-03-14T02:36:13;7.53;;;2.58;;
6372;SDS011;3219;51.362;7.074;2023-03-14T02:38:41;7.68;;;2.67;;
6372;SDS011;3219;51.362;7.074;2023-03-14T02:43:39;8.02;;;2.05;;
6372;SDS011;3219;51.362;7.074;2023-03-14T02:46:08;9.20;;;2.67;;
6372;SDS011;3219;51.362;7.074;2023-03-14T02:48:38;6.38;;;2.40;;
6372;SDS011;3219;51.362;7.074;2023-03-14T02:51:09;9.57;;;2.38;;
6372;SDS011;3219;51.362;7.074;2023-03-14T02:53:37;12.13;;;3.20;;
6372;SDS011;3219;51.362;7.074;2023-03-14T02:56:06;6.28;;;2.60;;
6372;SDS011;3219;51.362;7.074;2023-03-14T02:58:34;9.45;;;3.30;;
6372;SDS011;3219;51.362;7.074;2023-03-14T03:01:01;9.52;;;3.17;;
6372;SDS011;3219;51.362;7.074;2023-03-14T03:03:29;6.70;;;2.90;;
6372;SDS011;3219;51.362;7.074;2023-03-14T03:05:56;11.88;;;3.17;;
6372;SDS011;3219;51.362;7.074;2023-03-14T03:08:24;11.20;;;3.05;;
6372;SDS011;3219;51.362;7.074;2023-03-14T03:10:53;9.13;;;3.00;;
6372;SDS011;3219;51.362;7.074;2023-03-14T03:13:20;8.05;;;3.05;;
6372;SDS011;3219;51.362;7.074;2023-03-14T03:15:47;10.50;;;3.95;;
6372;SDS011;3219;51.362;7.074;2023-03-14T03:18:14;9.75;;;3.10;;
6372;SDS011;3219;51.362;7.074;2023-03-14T03:20:43;7.68;;;2.85;;
6372;SDS011;3219;51.362;7.074;2023-03-14T03:23:10;8.52;;;2.95;;
6372;SDS011;3219;51.362;7.074;2023-03-14T03:25:38;8.05;;;2.95;;
6372;SDS011;3219;51.362;7.074;2023-03-14T03:28:04;8.20;;;3.17;;
6372;SDS011;3219;51.362;7.074;2023-03-14T03:30:33;11.00;;;2.95;;
6372;SDS011;3219;51.362;7.074;2023-03-14T03:33:03;10.98;;;3.03;;
6372;SDS011;3219;51.362;7.074;2023-03-14T03:35:30;8.35;;;3.03;;
6372;SDS011;3219;51.362;7.074;2023-03-14T03:37:59;10.88;;;3.10;;
6372;SDS011;3219;51.362;7.074;2023-03-14T03:40:26;8.60;;;2.95;;
6372;SDS011;3219;51.362;7.074;2023-03-14T03:42:53;14.00;;;3.35;;
6372;SDS011;3219;51.362;7.074;2023-03-14T03:45:19;7.85;;;2.58;;
6372;SDS011;3219;51.362;7.074;2023-03-14T03:47:46;9.70;;;3.13;;
6372;SDS011;3219;51.362;7.074;2023-03-14T03:50:13;7.20;;;3.33;;
6372;SDS011;3219;51.362;7.074;2023-03-14T03:52:40;10.68;;;6.78;;
6372;SDS011;3219;51.362;7.074;2023-03-14T03:55:08;9.77;;;4.25;;
6372;SDS011;3219;51.362;7.074;2023-03-14T03:57:35;11.82;;;3.47;;
6372;SDS011;3219;51.362;7.074;2023-03-14T04:00:02;11.00;;;2.55;;
6372;SDS011;3219;51.362;7.074;2023-03-14T04:02:31;10.40;;;3.25;;
6372;SDS011;3219;51.362;7.074;2023-03-14T04:04:58;8.20;;;2.88;;
6372;SDS011;3219;51.362;7.074;2023-03-14T04:07:24;11.02;;;3.00;;
6372;SDS011;3219;51.362;7.074;2023-03-14T04:09:51;8.95;;;2.25;;
6372;SDS011;3219;51.362;7.074;2023-03-14T04:12:19;11.05;;;2.65;;
6372;SDS011;3219;51.362;7.074;2023-03-14T04:14:46;9.00;;;1.80;;
6372;SDS011;3219;51.362;7.074;2023-03-14T04:17:13;7.35;;;2.22;;
6372;SDS011;3219;51.362;7.074;2023-03-14T04:19:39;5.70;;;1.77;;
6372;SDS011;3219;51.362;7.074;2023-03-14T04:22:07;5.57;;;1.63;;
6372;SDS011;3219;51.362;7.074;2023-03-14T04:24:34;5.70;;;2.00;;
6372;SDS011;3219;51.362;7.074;2023-03-14T04:27:00;6.10;;;1.70;;
6372;SDS011;3219;51.362;7.074;2023-03-14T04:29:28;6.15;;;2.35;;
6372;SDS011;3219;51.362;7.074;2023-03-14T04:31:55;8.05;;;2.25;;
6372;SDS011;3219;51.362;7.074;2023-03-14T04:34:22;4.97;;;1.90;;
6372;SDS011;3219;51.362;7.074;2023-03-14T04:36:49;7.22;;;2.97;;
6372;SDS011;3219;51.362;7.074;2023-03-14T04:39:15;9.65;;;3.53;;
6372;SDS011;3219;51.362;7.074;2023-03-14T04:41:43;9.02;;;3.88;;
6372;SDS011;3219;51.362;7.074;2023-03-14T04:44:10;6.93;;;3.58;;
6372;SDS011;3219;51.362;7.074;2023-03-14T04:46:38;9.38;;;3.97;;
6372;SDS011;3219;51.362;7.074;2023-03-14T04:49:05;9.18;;;4.22;;
6372;SDS011;3219;51.362;7.074;2023-03-14T04:51:32;9.70;;;3.50;;
6372;SDS011;3219;51.362;7.074;2023-03-14T04:53:58;7.70;;;3.00;;
6372;SDS011;3219;51.362;7.074;2023-03-14T04:56:25;8.68;;;2.72;;
6372;SDS011;3219;51.362;7.074;2023-03-14T04:58:52;3.10;;;1.08;;
6372;SDS011;3219;51.362;7.074;2023-03-14T05:01:19;1.92;;;0.90;;
6372;SDS011;3219;51.362;7.074;2023-03-14T05:03:47;2.72;;;0.90;;
6372;SDS011;3219;51.362;7.074;2023-03-14T05:06:14;1.35;;;0.68;;
6372;SDS011;3219;51.362;7.074;2023-03-14T05:08:40;1.77;;;0.80;;
6372;SDS011;3219;51.362;7.074;2023-03-14T05:11:09;4.65;;;1.10;;
6372;SDS011;3219;51.362;7.074;2023-03-14T05:13:36;2.72;;;0.85;;
6372;SDS011;3219;51.362;7.074;2023-03-14T05:16:03;0.52;;;0.52;;
6372;SDS011;3219;51.362;7.074;2023-03-14T05:18:30;1.85;;;0.80;;
6372;SDS011;3219;51.362;7.074;2023-03-14T05:20:58;0.98;;;0.60;;
6372;SDS011;3219;51.362;7.074;2023-03-14T05:23:26;0.82;;;0.75;;
6372;SDS011;3219;51.362;7.074;2023-03-14T05:25:52;3.17;;;0.85;;
6372;SDS011;3219;51.362;7.074;2023-03-14T05:28:19;2.65;;;1.73;;
6372;SDS011;3219;51.362;7.074;2023-03-14T05:30:46;4.13;;;2.15;;
6372;SDS011;3219;51.362;7.074;2023-03-14T05:33:13;16.92;;;5.53;;
6372;SDS011;3219;51.362;7.074;2023-03-14T05:35:40;15.93;;;5.40;;
6372;SDS011;3219;51.362;7.074;2023-03-14T05:38:09;11.93;;;4.70;;
6372;SDS011;3219;51.362;7.074;2023-03-14T05:40:36;8.13;;;3.92;;
6372;SDS011;3219;51.362;7.074;2023-03-14T05:43:03;7.10;;;3.47;;
6372;SDS011;3219;51.362;7.074;2023-03-14T05:45:30;9.77;;;3.47;;
6372;SDS011;3219;51.362;7.074;2023-03-14T05:47:56;6.30;;;2.80;;
6372;SDS011;3219;51.362;7.074;2023-03-14T05:50:23;8.98;;;3.25;;
6372;SDS011;3219;51.362;7.074;2023-03-14T05:52:50;8.65;;;3.40;;
6372;SDS011;3219;51.362;7.074;2023-03-14T05:55:18;8.35;;;2.97;;
6372;SDS011;3219;51.362;7.074;2023-03-14T05:57:45;6.78;;;3.05;;
6372;SDS011;3219;51.362;7.074;2023-03-14T06:00:12;7.45;;;2.90;;
6372;SDS011;3219;51.362;7.074;2023-03-14T06:02:39;5.78;;;2.30;;
6372;SDS011;3219;51.362;7.074;2023-03-14T06:05:06;7.22;;;2.45;;
6372;SDS011;3219;51.362;7.074;2023-03-14T06:07:33;6.03;;;2.13;;
6372;SDS011;3219;51.362;7.074;2023-03-14T06:10:00;6.32;;;2.13;;
6372;SDS011;3219;51.362;7.074;2023-03-14T06:12:28;6.28;;;2.05;;
6372;SDS011;3219;51.362;7.074;2023-03-14T06:14:55;5.93;;;2.53;;
6372;SDS011;3219;51.362;7.074;2023-03-14T06:17:22;8.57;;;2.40;;
6372;SDS011;3219;51.362;7.074;2023-03-14T06:19:48;6.20;;;2.88;;
6372;SDS011;3219;51.362;7.074;2023-03-14T06:22:15;7.93;;;2.50;;
6372;SDS011;3219;51.362;7.074;2023-03-14T06:24:42;2.67;;;1.33;;
6372;SDS011;3219;51.362;7.074;2023-03-14T06:27:09;4.70;;;1.80;;
6372;SDS011;3219;51.362;7.074;2023-03-14T06:29:37;4.57;;;1.30;;
6372;SDS011;3219;51.362;7.074;2023-03-14T06:32:04;2.78;;;1.58;;
6372;SDS011;3219;51.362;7.074;2023-03-14T06:34:34;3.08;;;1.73;;
6372;SDS011;3219;51.362;7.074;2023-03-14T06:37:00;3.95;;;1.70;;
6372;SDS011;3219;51.362;7.074;2023-03-14T06:39:27;6.57;;;2.00;;
6372;SDS011;3219;51.362;7.074;2023-03-14T06:41:54;2.70;;;1.30;;
6372;SDS011;3219;51.362;7.074;2023-03-14T06:44:20;4.72;;;1.55;;
6372;SDS011;3219;51.362;7.074;2023-03-14T06:46:49;5.60;;;1.52;;
6372;SDS011;3219;51.362;7.074;2023-03-14T06:49:15;1.88;;;1.35;;
6372;SDS011;3219;51.362;7.074;2023-03-14T06:51:42;3.20;;;1.35;;
6372;SDS011;3219;51.362;7.074;2023-03-14T06:54:09;1.92;;;1.15;;
6372;SDS011;3219;51.362;7.074;2023-03-14T06:56:35;2.25;;;0.90;;
6372;SDS011;3219;51.362;7.074;2023-03-14T06:59:02;2.92;;;1.10;;
6372;SDS011;3219;51.362;7.074;2023-03-14T07:01:29;2.33;;;1.02;;
6372;SDS011;3219;51.362;7.074;2023-03-14T07:03:58;4.22;;;1.25;;
6372;SDS011;3219;51.362;7.074;2023-03-14T07:06:25;5.13;;;1.20;;
6372;SDS011;3219;51.362;7.074;2023-03-14T07:08:54;3.20;;;1.00;;
6372;SDS011;3219;51.362;7.074;2023-03-14T07:11:21;5.63;;;1.00;;
6372;SDS011;3219;51.362;7.074;2023-03-14T07:13:48;1.60;;;0.93;;
6372;SDS011;3219;51.362;7.074;2023-03-14T07:16:14;4.43;;;0.90;;
6372;SDS011;3219;51.362;7.074;2023-03-14T07:18:41;4.90;;;1.27;;
6372;SDS011;3219;51.362;7.074;2023-03-14T07:21:09;1.13;;;0.90;;
6372;SDS011;3219;51.362;7.074;2023-03-14T07:23:37;2.55;;;1.00;;
6372;SDS011;3219;51.362;7.074;2023-03-14T07:26:04;0.95;;;0.80;;
6372;SDS011;3219;51.362;7.074;2023-03-14T07:28:31;1.15;;;0.70;;
6372;SDS011;3219;51.362;7.074;2023-03-14T07:30:58;1.35;;;0.90;;
6372;SDS011;3219;51.362;7.074;2023-03-14T07:33:24;2.20;;;1.00;;
6372;SDS011;3219;51.362;7.074;2023-03-14T07:35:51;2.13;;;1.00;;
6372;SDS011;3219;51.362;7.074;2023-03-14T07:38:19;1.30;;;1.10;;
6372;SDS011;3219;51.362;7.074;2023-03-14T07:40:46;1.10;;;1.00;;
6372;SDS011;3219;51.362;7.074;2023-03-14T07:43:13;1.35;;;1.02;;
6372;SDS011;3219;51.362;7.074;2023-03-14T07:45:39;3.78;;;1.30;;
6372;SDS011;3219;51.362;7.074;2023-03-14T07:48:06;1.70;;;1.60;;
6372;SDS011;3219;51.362;7.074;2023-03-14T07:50:33;1.58;;;1.40;;
6372;SDS011;3219;51.362;7.074;2023-03-14T07:53:00;1.65;;;1.50;;
6372;SDS011;3219;51.362;7.074;2023-03-14T07:55:28;2.38;;;1.40;;
6372;SDS011;3219;51.362;7.074;2023-03-14T07:57:54;3.13;;;1.13;;
6372;SDS011;3219;51.362;7.074;2023-03-14T08:00:21;1.48;;;1.10;;
6372;SDS011;3219;51.362;7.074;2023-03-14T08:02:48;4.20;;;1.10;;
6372;SDS011;3219;51.362;7.074;2023-03-14T08:05:15;2.63;;;1.20;;
6372;SDS011;3219;51.362;7.074;2023-03-14T08:07:42;1.42;;;1.10;;
6372;SDS011;3219;51.362;7.074;2023-03-14T08:10:09;2.88;;;1.40;;
6372;SDS011;3219;51.362;7.074;2023-03-14T08:12:39;2.72;;;1.17;;
6372;SDS011;3219;51.362;7.074;2023-03-14T08:15:06;2.70;;;1.17;;
6372;SDS011;3219;51.362;7.074;2023-03-14T08:17:33;2.90;;;1.20;;
6372;SDS011;3219;51.362;7.074;2023-03-14T08:20:00;3.70;;;1.10;;
6372;SDS011;3219;51.362;7.074;2023-03-14T08:22:28;2.10;;;1.40;;
6372;SDS011;3219;51.362;7.074;2023-03-14T08:24:55;2.15;;;1.33;;
6372;SDS011;3219;51.362;7.074;2023-03-14T08:27:21;2.55;;;1.33;;
6372;SDS011;3219;51.362;7.074;2023-03-14T08:29:49;1.33;;;1.20;;
6372;SDS011;3219;51.362;7.074;2023-03-14T08:32:16;1.48;;;1.10;;
6372;SDS011;3219;51.362;7.074;2023-03-14T08:34:45;2.33;;;1.20;;
6372;SDS011;3219;51.362;7.074;2023-03-14T08:37:12;1.48;;;1.38;;
6372;SDS011;3219;51.362;7.074;2023-03-14T08:39:38;2.42;;;1.63;;
6372;SDS011;3219;51.362;7.074;2023-03-14T08:42:05;3.13;;;1.40;;
6372;SDS011;3219;51.362;7.074;2023-03-14T08:44:32;1.60;;;1.10;;
6372;SDS011;3219;51.362;7.074;2023-03-14T08:47:00;2.97;;;1.30;;
6372;SDS011;3219;51.362;7.074;2023-03-14T08:49:27;1.75;;;1.25;;
6372;SDS011;3219;51.362;7.074;2023-03-14T08:51:54;1.52;;;1.38;;
6372;SDS011;3219;51.362;7.074;2023-03-14T08:54:20;1.67;;;1.10;;
6372;SDS011;3219;51.362;7.074;2023-03-14T08:56:47;2.53;;;1.27;;
6372;SDS011;3219;51.362;7.074;2023-03-14T08:59:14;1.58;;;1.25;;
6372;SDS011;3219;51.362;7.074;2023-03-14T09:01:40;1.85;;;1.33;;
6372;SDS011;3219;51.362;7.074;2023-03-14T09:04:08;1.88;;;1.20;;
6372;SDS011;3219;51.362;7.074;2023-03-14T09:06:35;3.20;;;1.40;;
6372;SDS011;3219;51.362;7.074;2023-03-14T09:09:02;3.20;;;1.30;;
6372;SDS011;3219;51.362;7.074;2023-03-14T09:11:30;1.40;;;1.20;;
6372;SDS011;3219;51.362;7.074;2023-03-14T09:13:57;2.63;;;1.63;;
6372;SDS011;3219;51.362;7.074;2023-03-14T09:16:24;3.45;;;1.40;;
6372;SDS011;3219;51.362;7.074;2023-03-14T09:18:51;4.05;;;1.52;;
6372;SDS011;3219;51.362;7.074;2023-03-14T09:21:20;6.45;;;1.25;;
6372;SDS011;3219;51.362;7.074;2023-03-14T09:23:47;3.67;;;1.48;;
6372;SDS011;3219;51.362;7.074;2023-03-14T09:26:14;2.03;;;1.40;;
6372;SDS011;3219;51.362;7.074;2023-03-14T09:28:41;1.35;;;0.95;;
6372;SDS011;3219;51.362;7.074;2023-03-14T09:31:08;2.22;;;0.80;;
6372;SDS011;3219;51.362;7.074;2023-03-14T09:33:36;1.20;;;1.00;;
6372;SDS011;3219;51.362;7.074;2023-03-14T09:36:04;1.08;;;0.93;;
6372;SDS011;3219;51.362;7.074;2023-03-14T09:38:33;2.22;;;0.70;;
6372;SDS011;3219;51.362;7.074;2023-03-14T09:41:00;1.95;;;0.77;;
6372;SDS011;3219;51.362;7.074;2023-03-14T09:43:30;1.45;;;0.80;;
6372;SDS011;3219;51.362;7.074;2023-03-14T09:45:59;3.88;;;1.00;;
6372;SDS011;3219;51.362;7.074;2023-03-14T09:48:29;2.53;;;1.27;;
6372;SDS011;3219;51.362;7.074;2023-03-14T09:50:58;2.30;;;1.00;;
6372;SDS011;3219;51.362;7.074;2023-03-14T09:53:31;1.60;;;1.00;;
6372;SDS011;3219;51.362;7.074;2023-03-14T09:56:03;3.05;;;1.30;;
6372;SDS011;3219;51.362;7.074;2023-03-14T09:58:34;1.90;;;1.07;;
6372;SDS011;3219;51.362;7.074;2023-03-14T10:01:02;1.65;;;1.02;;
6372;SDS011;3219;51.362;7.074;2023-03-14T10:03:31;3.50;;;1.55;;
6372;SDS011;3219;51.362;7.074;2023-03-14T10:05:59;3.42;;;1.50;;
6372;SDS011;3219;51.362;7.074;2023-03-14T10:08:27;1.90;;;1.23;;
6372;SDS011;3219;51.362;7.074;2023-03-14T10:10:55;2.33;;;1.63;;
6372;SDS011;3219;51.362;7.074;2023-03-14T10:13:22;3.50;;;1.60;;
6372;SDS011;3219;51.362;7.074;2023-03-14T10:15:52;2.80;;;1.60;;
6372;SDS011;3219;51.362;7.074;2023-03-14T10:18:21;1.95;;;1.70;;
6372;SDS011;3219;51.362;7.074;2023-03-14T10:20:49;3.92;;;2.20;;
6372;SDS011;3219;51.362;7.074;2023-03-14T10:23:27;2.72;;;2.10;;
6372;SDS011;3219;51.362;7.074;2023-03-14T10:26:08;4.32;;;2.50;;
6372;SDS011;3219;51.362;7.074;2023-03-14T10:28:39;3.35;;;2.13;;
6372;SDS011;3219;51.362;7.074;2023-03-14T10:31:09;3.40;;;2.70;;
6372;SDS011;3219;51.362;7.074;2023-03-14T10:33:37;3.67;;;2.30;;
6372;SDS011;3219;51.362;7.074;2023-03-14T10:36:05;2.97;;;2.13;;
6372;SDS011;3219;51.362;7.074;2023-03-14T10:38:41;3.47;;;2.80;;
6372;SDS011;3219;51.362;7.074;2023-03-14T10:41:15;3.45;;;2.40;;
6372;SDS011;3219;51.362;7.074;2023-03-14T10:43:45;4.57;;;3.15;;
6372;SDS011;3219;51.362;7.074;2023-03-14T10:46:15;9.48;;;4.72;;
6372;SDS011;3219;51.362;7.074;2023-03-14T10:48:44;6.03;;;5.00;;
6372;SDS011;3219;51.362;7.074;2023-03-14T10:51:12;5.80;;;4.25;;
6372;SDS011;3219;51.362;7.074;2023-03-14T10:53:46;6.18;;;3.90;;
6372;SDS011;3219;51.362;7.074;2023-03-14T10:56:17;5.68;;;4.07;;
6372;SDS011;3219;51.362;7.074;2023-03-14T10:58:46;4.95;;;3.22;;
6372;SDS011;3219;51.362;7.074;2023-03-14T11:01:17;4.50;;;2.08;;
6372;SDS011;3219;51.362;7.074;2023-03-14T11:03:54;3.08;;;1.80;;
6372;SDS011;3219;51.362;7.074;2023-03-14T11:06:26;4.78;;;1.83;;
6372;SDS011;3219;51.362;7.074;2023-03-14T11:09:02;4.05;;;1.65;;
6372;SDS011;3219;51.362;7.074;2023-03-14T11:11:38;6.25;;;1.80;;
6372;SDS011;3219;51.362;7.074;2023-03-14T11:14:11;6.43;;;1.65;;
6372;SDS011;3219;51.362;7.074;2023-03-14T11:16:54;7.63;;;2.08;;
6372;SDS011;3219;51.362;7.074;2023-03-14T11:19:31;4.38;;;1.48;;
6372;SDS011;3219;51.362;7.074;2023-03-14T11:22:15;4.25;;;1.20;;
6372;SDS011;3219;51.362;7.074;2023-03-14T11:24:57;3.97;;;1.73;;
6372;SDS011;3219;51.362;7.074;2023-03-14T11:27:42;5.00;;;1.60;;
6372;SDS011;3219;51.362;7.074;2023-03-14T11:33:03;5.03;;;1.60;;
6372;SDS011;3219;51.362;7.074;2023-03-14T11:35:36;3.17;;;1.30;;
6372;SDS011;3219;51.362;7.074;2023-03-14T11:38:11;3.63;;;1.10;;
6372;SDS011;3219;51.362;7.074;2023-03-14T11:40:41;3.05;;;0.98;;
6372;SDS011;3219;51.362;7.074;2023-03-14T11:43:13;3.25;;;1.35;;
6372;SDS011;3219;51.362;7.074;2023-03-14T11:45:45;3.38;;;2.60;;
6372;SDS011;3219;51.362;7.074;2023-03-14T11:48:20;7.10;;;2.10;;
6372;SDS011;3219;51.362;7.074;2023-03-14T11:50:54;3.38;;;1.52;;
6372;SDS011;3219;51.362;7.074;2023-03-14T11:53:25;3.63;;;1.60;;
6372;SDS011;3219;51.362;7.074;2023-03-14T11:56:06;3.30;;;1.30;;
6372;SDS011;3219;51.362;7.074;2023-03-14T11:58:50;2.78;;;1.40;;
6372;SDS011;3219;51.362;7.074;2023-03-14T12:01:21;5.40;;;1.60;;
6372;SDS011;3219;51.362;7.074;2023-03-14T12:03:54;6.95;;;1.70;;
6372;SDS011;3219;51.362;7.074;2023-03-14T12:06:27;4.40;;;1.65;;
6372;SDS011;3219;51.362;7.074;2023-03-14T12:08:58;5.95;;;1.77;;
6372;SDS011;3219;51.362;7.074;2023-03-14T12:11:31;3.47;;;1.42;;
6372;SDS011;3219;51.362;7.074;2023-03-14T12:14:02;3.28;;;1.30;;
6372;SDS011;3219;51.362;7.074;2023-03-14T12:16:33;5.45;;;1.95;;
6372;SDS011;3219;51.362;7.074;2023-03-14T12:19:21;6.10;;;1.73;;
6372;SDS011;3219;51.362;7.074;2023-03-14T12:21:54;6.65;;;1.60;;
6372;SDS011;3219;51.362;7.074;2023-03-14T12:24:23;3.25;;;1.67;;
6372;SDS011;3219;51.362;7.074;2023-03-14T12:26:53;3.33;;;1.35;;
6372;SDS011;3219;51.362;7.074;2023-03-14T12:29:22;4.80;;;1.60;;
6372;SDS011;3219;51.362;7.074;2023-03-14T12:34:33;5.95;;;1.80;;
6372;SDS011;3219;51.362;7.074;2023-03-14T12:37:15;6.72;;;1.95;;
6372;SDS011;3219;51.362;7.074;2023-03-14T12:39:50;6.00;;;1.95;;
6372;SDS011;3219;51.362;7.074;2023-03-14T12:42:45;6.70;;;1.98;;
6372;SDS011;3219;51.362;7.074;2023-03-14T12:45:26;5.88;;;1.75;;
6372;SDS011;3219;51.362;7.074;2023-03-14T12:50:43;7.50;;;2.15;;
6372;SDS011;3219;51.362;7.074;2023-03-14T12:53:33;4.72;;;1.70;;
6372;SDS011;3219;51.362;7.074;2023-03-14T12:56:20;7.07;;;1.83;;
6372;SDS011;3219;51.362;7.074;2023-03-14T12:58:54;9.02;;;2.35;;
6372;SDS011;3219;51.362;7.074;2023-03-14T13:01:48;9.77;;;2.53;;
6372;SDS011;3219;51.362;7.074;2023-03-14T13:04:25;9.82;;;2.67;;
6372;SDS011;3219;51.362;7.074;2023-03-14T13:06:56;9.65;;;2.42;;
6372;SDS011;3219;51.362;7.074;2023-03-14T13:12:44;9.73;;;2.47;;
6372;SDS011;3219;51.362;7.074;2023-03-14T13:15:17;12.07;;;3.13;;
6372;SDS011;3219;51.362;7.074;2023-03-14T13:17:49;9.13;;;3.00;;
6372;SDS011;3219;51.362;7.074;2023-03-14T13:20:20;15.60;;;3.53;;
6372;SDS011;3219;51.362;7.074;2023-03-14T13:22:50;17.90;;;4.00;;
6372;SDS011;3219;51.362;7.074;2023-03-14T13:25:17;15.77;;;3.78;;
6372;SDS011;3219;51.362;7.074;2023-03-14T13:27:46;12.68;;;4.18;;
6372;SDS011;3219;51.362;7.074;2023-03-14T13:30:17;19.35;;;4.13;;
6372;SDS011;3219;51.362;7.074;2023-03-14T13:32:46;17.33;;;4.03;;
6372;SDS011;3219;51.362;7.074;2023-03-14T13:35:17;15.57;;;3.83;;
6372;SDS011;3219;51.362;7.074;2023-03-14T13:37:45;19.92;;;4.40;;
6372;SDS011;3219;51.362;7.074;2023-03-14T13:40:19;14.65;;;4.25;;
6372;SDS011;3219;51.362;7.074;2023-03-14T13:42:58;18.55;;;4.72;;
6372;SDS011;3219;51.362;7.074;2023-03-14T13:45:31;18.00;;;4.40;;
6372;SDS011;3219;51.362;7.074;2023-03-14T13:48:11;13.27;;;3.47;;
6372;SDS011;3219;51.362;7.074;2023-03-14T13:50:43;22.30;;;3.90;;
6372;SDS011;3219;51.362;7.074;2023-03-14T13:53:11;21.83;;;4.05;;
6372;SDS011;3219;51.362;7.074;2023-03-14T13:55:38;22.70;;;4.93;;
6372;SDS011;3219;51.362;7.074;2023-03-14T13:58:10;20.10;;;4.45;;
6372;SDS011;3219;51.362;7.074;2023-03-14T14:00:39;24.60;;;5.03;;
6372;SDS011;3219;51.362;7.074;2023-03-14T14:03:08;17.40;;;4.63;;
6372;SDS011;3219;51.362;7.074;2023-03-14T14:05:39;25.23;;;4.53;;
6372;SDS011;3219;51.362;7.074;2023-03-14T14:08:06;18.73;;;4.22;;
6372;SDS011;3219;51.362;7.074;2023-03-14T14:10:37;24.33;;;4.63;;
6372;SDS011;3219;51.362;7.074;2023-03-14T14:13:04;22.50;;;5.25;;
6372;SDS011;3219;51.362;7.074;2023-03-14T14:15:36;27.27;;;4.65;;
6372;SDS011;3219;51.362;7.074;2023-03-14T14:18:07;24.05;;;4.70;;
6372;SDS011;3219;51.362;7.074;2023-03-14T14:20:39;19.02;;;4.38;;
6372;SDS011;3219;51.362;7.074;2023-03-14T14:23:09;21.35;;;4.78;;
6372;SDS011;3219;51.362;7.074;2023-03-14T14:25:38;24.45;;;4.38;;
6372;SDS011;3219;51.362;7.074;2023-03-14T14:28:14;18.83;;;4.80;;
6372;SDS011;3219;51.362;7.074;2023-03-14T14:30:43;19.25;;;5.15;;
6372;SDS011;3219;51.362;7.074;2023-03-14T14:33:16;18.10;;;4.70;;
6372;SDS011;3219;51.362;7.074;2023-03-14T14:35:49;19.83;;;4.50;;
6372;SDS011;3219;51.362;7.074;2023-03-14T14:38:18;22.20;;;3.97;;
6372;SDS011;3219;51.362;7.074;2023-03-14T14:40:47;19.48;;;4.43;;
6372;SDS011;3219;51.362;7.074;2023-03-14T14:43:16;21.08;;;4.38;;
6372;SDS011;3219;51.362;7.074;2023-03-14T14:45:47;22.63;;;4.40;;
6372;SDS011;3219;51.362;7.074;2023-03-14T14:48:17;23.25;;;3.85;;
6372;SDS011;3219;51.362;7.074;2023-03-14T14:50:50;11.27;;;3.60;;
6372;SDS011;3219;51.362;7.074;2023-03-14T14:53:27;19.40;;;3.85;;
6372;SDS011;3219;51.362;7.074;2023-03-14T14:55:56;11.65;;;3.13;;
6372;SDS011;3219;51.362;7.074;2023-03-14T14:58:25;11.57;;;2.53;;
6372;SDS011;3219;51.362;7.074;2023-03-14T15:00:54;15.30;;;3.45;;
6372;SDS011;3219;51.362;7.074;2023-03-14T15:03:27;15.65;;;3.30;;
6372;SDS011;3219;51.362;7.074;2023-03-14T15:05:55;13.00;;;3.13;;
6372;SDS011;3219;51.362;7.074;2023-03-14T15:08:23;20.10;;;2.97;;
6372;SDS011;3219;51.362;7.074;2023-03-14T15:10:52;10.82;;;2.78;;
6372;SDS011;3219;51.362;7.074;2023-03-14T15:13:19;12.50;;;2.53;;
6372;SDS011;3219;51.362;7.074;2023-03-14T15:15:46;8.02;;;2.33;;
6372;SDS011;3219;51.362;7.074;2023-03-14T15:18:14;9.27;;;2.50;;
6372;SDS011;3219;51.362;7.074;2023-03-14T15:20:43;13.68;;;2.90;;
6372;SDS011;3219;51.362;7.074;2023-03-14T15:23:11;16.90;;;3.30;;
6372;SDS011;3219;51.362;7.074;2023-03-14T15:25:38;9.25;;;2.80;;
6372;SDS011;3219;51.362;7.074;2023-03-14T15:30:52;7.72;;;2.63;;
6372;SDS011;3219;51.362;7.074;2023-03-14T15:33:20;9.00;;;2.85;;
6372;SDS011;3219;51.362;7.074;2023-03-14T15:35:49;14.35;;;2.83;;
6372;SDS011;3219;51.362;7.074;2023-03-14T15:38:17;10.48;;;2.88;;
6372;SDS011;3219;51.362;7.074;2023-03-14T15:40:46;14.63;;;3.40;;